sensor_id;sensor_type;location;lat;lon;timestamp;temperature;humidity
24152;DHT22;12311;50.866;4.332;2022-11-20T00:01:17;4.60;99.90
24152;DHT22;12311;50.866;4.332;2022-11-20T00:03:43;4.70;99.90
24152;DHT22;12311;50.866;4.332;2022-11-20T00:06:12;4.70;99.90
24152;DHT22;12311;50.866;4.332;2022-11-20T00:08:38;4.70;99.90
24152;DHT22;12311;50.866;4.332;2022-11-20T00:13:30;4.80;99.90
24152;DHT22;12311;50.866;4.332;2022-11-20T00:15:57;4.80;99.90
24152;DHT22;12311;50.866;4.332;2022-11-20T00:18:24;4.80;99.90
24152;DHT22;12311;50.866;4.332;2022-11-20T00:20:50;4.80;99.90
24152;DHT22;12311;50.866;4.332;2022-11-20T00:23:15;4.90;99.90
24152;DHT22;12311;50.866;4.332;2022-11-20T00:25:41;4.80;99.90
24152;DHT22;12311;50.866;4.332;2022-11-20T00:28:06;4.80;99.90
24152;DHT22;12311;50.866;4.332;2022-11-20T00:30:32;4.80;99.90
24152;DHT22;12311;50.866;4.332;2022-11-20T00:32:57;4.90;99.90
24152;DHT22;12311;50.866;4.332;2022-11-20T00:35:23;4.80;99.90
24152;DHT22;12311;50.866;4.332;2022-11-20T00:37:49;4.80;99.90
24152;DHT22;12311;50.866;4.332;2022-11-20T00:40:14;4.90;99.90
24152;DHT22;12311;50.866;4.332;2022-11-20T00:42:40;4.90;99.90
24152;DHT22;12311;50.866;4.332;2022-11-20T00:45:06;4.90;99.90
24152;DHT22;12311;50.866;4.332;2022-11-20T00:47:32;4.80;99.90
24152;DHT22;12311;50.866;4.332;2022-11-20T00:49:58;4.80;99.90
24152;DHT22;12311;50.866;4.332;2022-11-20T00:52:23;4.80;99.90
24152;DHT22;12311;50.866;4.332;2022-11-20T00:54:49;4.90;99.90
24152;DHT22;12311;50.866;4.332;2022-11-20T00:57:14;4.80;99.90
24152;DHT22;12311;50.866;4.332;2022-11-20T00:59:40;4.90;99.90
24152;DHT22;12311;50.866;4.332;2022-11-20T01:02:06;5.00;99.90
24152;DHT22;12311;50.866;4.332;2022-11-20T01:04:31;5.00;99.90
24152;DHT22;12311;50.866;4.332;2022-11-20T01:06:57;4.90;99.90
24152;DHT22;12311;50.866;4.332;2022-11-20T01:09:25;4.90;99.90
24152;DHT22;12311;50.866;4.332;2022-11-20T01:11:54;4.90;99.90
24152;DHT22;12311;50.866;4.332;2022-11-20T01:14:20;5.00;99.90
24152;DHT22;12311;50.866;4.332;2022-11-20T01:16:48;5.00;99.90
24152;DHT22;12311;50.866;4.332;2022-11-20T01:19:16;5.00;99.90
24152;DHT22;12311;50.866;4.332;2022-11-20T01:21:44;5.00;99.90
24152;DHT22;12311;50.866;4.332;2022-11-20T01:24:14;5.10;99.90
24152;DHT22;12311;50.866;4.332;2022-11-20T01:26:42;5.10;99.90
24152;DHT22;12311;50.866;4.332;2022-11-20T01:29:13;5.10;99.90
24152;DHT22;12311;50.866;4.332;2022-11-20T01:31:39;5.00;99.90
24152;DHT22;12311;50.866;4.332;2022-11-20T01:34:13;4.90;99.90
24152;DHT22;12311;50.866;4.332;2022-11-20T01:36:40;5.00;99.90
24152;DHT22;12311;50.866;4.332;2022-11-20T01:39:15;5.00;99.90
24152;DHT22;12311;50.866;4.332;2022-11-20T01:41:41;5.00;99.90
24152;DHT22;12311;50.866;4.332;2022-11-20T01:44:49;5.20;99.90
24152;DHT22;12311;50.866;4.332;2022-11-20T01:47:34;5.10;99.90
24152;DHT22;12311;50.866;4.332;2022-11-20T01:50:23;5.10;99.90
24152;DHT22;12311;50.866;4.332;2022-11-20T01:52:56;5.10;99.90
24152;DHT22;12311;50.866;4.332;2022-11-20T01:55:32;5.10;99.90
24152;DHT22;12311;50.866;4.332;2022-11-20T01:58:02;5.10;99.90
24152;DHT22;12311;50.866;4.332;2022-11-20T02:00:28;5.00;99.90
24152;DHT22;12311;50.866;4.332;2022-11-20T02:02:58;5.00;99.90
24152;DHT22;12311;50.866;4.332;2022-11-20T02:08:12;5.10;99.90
24152;DHT22;12311;50.866;4.332;2022-11-20T02:10:38;5.10;99.90
24152;DHT22;12311;50.866;4.332;2022-11-20T02:13:04;5.10;99.90
24152;DHT22;12311;50.866;4.332;2022-11-20T02:15:49;5.20;99.90
24152;DHT22;12311;50.866;4.332;2022-11-20T02:18:17;5.10;99.90
24152;DHT22;12311;50.866;4.332;2022-11-20T02:20:46;4.90;99.90
24152;DHT22;12311;50.866;4.332;2022-11-20T02:23:21;5.00;99.90
24152;DHT22;12311;50.866;4.332;2022-11-20T02:25:51;4.90;99.90
24152;DHT22;12311;50.866;4.332;2022-11-20T02:28:18;5.00;99.90
24152;DHT22;12311;50.866;4.332;2022-11-20T02:30:43;4.90;99.90
24152;DHT22;12311;50.866;4.332;2022-11-20T02:33:09;4.90;99.90
24152;DHT22;12311;50.866;4.332;2022-11-20T02:38:02;4.80;99.90
24152;DHT22;12311;50.866;4.332;2022-11-20T02:40:28;4.80;99.90
24152;DHT22;12311;50.866;4.332;2022-11-20T02:42:57;4.80;99.90
24152;DHT22;12311;50.866;4.332;2022-11-20T02:45:24;4.80;99.90
24152;DHT22;12311;50.866;4.332;2022-11-20T02:47:50;4.80;99.90
24152;DHT22;12311;50.866;4.332;2022-11-20T02:50:16;4.80;99.90
24152;DHT22;12311;50.866;4.332;2022-11-20T02:52:42;4.80;99.90
24152;DHT22;12311;50.866;4.332;2022-11-20T02:55:08;4.80;99.90
24152;DHT22;12311;50.866;4.332;2022-11-20T02:57:34;4.80;99.90
24152;DHT22;12311;50.866;4.332;2022-11-20T03:00:00;4.80;99.90
24152;DHT22;12311;50.866;4.332;2022-11-20T03:02:25;4.80;99.90
24152;DHT22;12311;50.866;4.332;2022-11-20T03:04:54;4.80;99.90
24152;DHT22;12311;50.866;4.332;2022-11-20T03:07:20;4.90;99.90
24152;DHT22;12311;50.866;4.332;2022-11-20T03:09:45;4.80;99.90
24152;DHT22;12311;50.866;4.332;2022-11-20T03:12:11;4.90;99.90
24152;DHT22;12311;50.866;4.332;2022-11-20T03:14:36;4.90;99.90
24152;DHT22;12311;50.866;4.332;2022-11-20T03:17:02;4.90;99.90
24152;DHT22;12311;50.866;4.332;2022-11-20T03:19:28;5.10;99.90
24152;DHT22;12311;50.866;4.332;2022-11-20T03:21:53;4.90;99.90
24152;DHT22;12311;50.866;4.332;2022-11-20T03:24:19;4.90;99.90
24152;DHT22;12311;50.866;4.332;2022-11-20T03:26:45;4.90;99.90
24152;DHT22;12311;50.866;4.332;2022-11-20T03:29:10;4.70;99.90
24152;DHT22;12311;50.866;4.332;2022-11-20T03:31:38;4.80;99.90
24152;DHT22;12311;50.866;4.332;2022-11-20T03:34:06;4.70;99.90
24152;DHT22;12311;50.866;4.332;2022-11-20T03:36:32;4.60;99.90
24152;DHT22;12311;50.866;4.332;2022-11-20T03:38:58;4.60;99.90
24152;DHT22;12311;50.866;4.332;2022-11-20T03:41:28;4.60;99.90
24152;DHT22;12311;50.866;4.332;2022-11-20T03:43:59;4.60;99.90
24152;DHT22;12311;50.866;4.332;2022-11-20T03:46:26;4.70;99.90
24152;DHT22;12311;50.866;4.332;2022-11-20T03:48:52;4.70;99.90
24152;DHT22;12311;50.866;4.332;2022-11-20T03:51:20;4.80;99.90
24152;DHT22;12311;50.866;4.332;2022-11-20T03:53:48;4.90;99.90
24152;DHT22;12311;50.866;4.332;2022-11-20T03:56:16;4.90;99.90
24152;DHT22;12311;50.866;4.332;2022-11-20T03:58:42;4.90;99.90
24152;DHT22;12311;50.866;4.332;2022-11-20T04:01:08;4.80;99.90
24152;DHT22;12311;50.866;4.332;2022-11-20T04:03:35;4.70;99.90
24152;DHT22;12311;50.866;4.332;2022-11-20T04:06:14;4.60;99.90
24152;DHT22;12311;50.866;4.332;2022-11-20T04:08:40;4.70;99.90
24152;DHT22;12311;50.866;4.332;2022-11-20T04:11:12;4.70;99.90
24152;DHT22;12311;50.866;4.332;2022-11-20T04:13:38;4.90;99.90
24152;DHT22;12311;50.866;4.332;2022-11-20T04:16:05;4.90;99.90
24152;DHT22;12311;50.866;4.332;2022-11-20T04:18:31;4.90;99.90
24152;DHT22;12311;50.866;4.332;2022-11-20T04:20:58;4.90;99.90
24152;DHT22;12311;50.866;4.332;2022-11-20T04:23:24;4.80;99.90
24152;DHT22;12311;50.866;4.332;2022-11-20T04:25:50;4.70;99.90
24152;DHT22;12311;50.866;4.332;2022-11-20T04:28:15;4.70;99.90
24152;DHT22;12311;50.866;4.332;2022-11-20T04:30:41;4.70;99.90
24152;DHT22;12311;50.866;4.332;2022-11-20T04:33:07;4.90;99.90
24152;DHT22;12311;50.866;4.332;2022-11-20T04:35:36;4.90;99.90
24152;DHT22;12311;50.866;4.332;2022-11-20T04:38:02;4.90;99.90
24152;DHT22;12311;50.866;4.332;2022-11-20T04:40:28;4.90;99.90
24152;DHT22;12311;50.866;4.332;2022-11-20T04:42:54;4.80;99.90
24152;DHT22;12311;50.866;4.332;2022-11-20T04:45:21;4.80;99.90
24152;DHT22;12311;50.866;4.332;2022-11-20T04:47:47;4.70;99.90
24152;DHT22;12311;50.866;4.332;2022-11-20T04:50:12;4.70;99.90
24152;DHT22;12311;50.866;4.332;2022-11-20T04:52:38;4.80;99.90
24152;DHT22;12311;50.866;4.332;2022-11-20T04:55:04;4.80;99.90
24152;DHT22;12311;50.866;4.332;2022-11-20T04:57:30;4.90;99.90
24152;DHT22;12311;50.866;4.332;2022-11-20T04:59:55;4.90;99.90
24152;DHT22;12311;50.866;4.332;2022-11-20T05:02:21;4.90;99.90
24152;DHT22;12311;50.866;4.332;2022-11-20T05:04:47;4.90;99.90
24152;DHT22;12311;50.866;4.332;2022-11-20T05:07:12;5.00;99.90
24152;DHT22;12311;50.866;4.332;2022-11-20T05:09:38;5.00;99.90
24152;DHT22;12311;50.866;4.332;2022-11-20T05:12:04;5.10;99.90
24152;DHT22;12311;50.866;4.332;2022-11-20T05:14:29;5.10;99.90
24152;DHT22;12311;50.866;4.332;2022-11-20T05:16:55;5.10;99.90
24152;DHT22;12311;50.866;4.332;2022-11-20T05:19:21;5.10;99.90
24152;DHT22;12311;50.866;4.332;2022-11-20T05:21:47;5.20;99.90
24152;DHT22;12311;50.866;4.332;2022-11-20T05:24:12;5.20;99.90
24152;DHT22;12311;50.866;4.332;2022-11-20T05:26:38;5.30;99.90
24152;DHT22;12311;50.866;4.332;2022-11-20T05:29:03;5.30;99.90
24152;DHT22;12311;50.866;4.332;2022-11-20T05:31:29;5.30;99.90
24152;DHT22;12311;50.866;4.332;2022-11-20T05:33:56;5.50;99.90
24152;DHT22;12311;50.866;4.332;2022-11-20T05:36:22;5.40;99.90
24152;DHT22;12311;50.866;4.332;2022-11-20T05:38:48;5.50;99.90
24152;DHT22;12311;50.866;4.332;2022-11-20T05:41:18;5.40;99.90
24152;DHT22;12311;50.866;4.332;2022-11-20T05:43:46;5.40;99.90
24152;DHT22;12311;50.866;4.332;2022-11-20T05:46:14;5.40;99.90
24152;DHT22;12311;50.866;4.332;2022-11-20T05:48:41;5.40;99.90
24152;DHT22;12311;50.866;4.332;2022-11-20T05:51:09;5.50;99.90
24152;DHT22;12311;50.866;4.332;2022-11-20T05:53:36;5.30;99.90
24152;DHT22;12311;50.866;4.332;2022-11-20T05:56:05;5.30;99.90
24152;DHT22;12311;50.866;4.332;2022-11-20T05:58:31;5.20;99.90
24152;DHT22;12311;50.866;4.332;2022-11-20T06:03:43;5.30;99.90
24152;DHT22;12311;50.866;4.332;2022-11-20T06:06:12;5.20;99.90
24152;DHT22;12311;50.866;4.332;2022-11-20T06:08:38;5.30;99.90
24152;DHT22;12311;50.866;4.332;2022-11-20T06:11:05;5.20;99.90
24152;DHT22;12311;50.866;4.332;2022-11-20T06:13:31;5.30;99.90
24152;DHT22;12311;50.866;4.332;2022-11-20T06:15:57;5.20;99.90
24152;DHT22;12311;50.866;4.332;2022-11-20T06:18:22;5.20;99.90
24152;DHT22;12311;50.866;4.332;2022-11-20T06:20:48;5.10;99.90
24152;DHT22;12311;50.866;4.332;2022-11-20T06:23:14;5.10;99.90
24152;DHT22;12311;50.866;4.332;2022-11-20T06:25:40;5.10;99.90
24152;DHT22;12311;50.866;4.332;2022-11-20T06:28:06;5.10;99.90
24152;DHT22;12311;50.866;4.332;2022-11-20T06:30:32;5.10;99.90
24152;DHT22;12311;50.866;4.332;2022-11-20T06:32:58;5.00;99.90
24152;DHT22;12311;50.866;4.332;2022-11-20T06:35:23;5.10;99.90
24152;DHT22;12311;50.866;4.332;2022-11-20T06:37:49;5.20;99.90
24152;DHT22;12311;50.866;4.332;2022-11-20T06:40:14;5.30;99.90
24152;DHT22;12311;50.866;4.332;2022-11-20T06:42:40;5.30;99.90
24152;DHT22;12311;50.866;4.332;2022-11-20T06:45:06;5.40;99.90
24152;DHT22;12311;50.866;4.332;2022-11-20T06:47:32;5.40;99.90
24152;DHT22;12311;50.866;4.332;2022-11-20T06:49:58;5.40;99.90
24152;DHT22;12311;50.866;4.332;2022-11-20T06:52:24;5.50;99.90
24152;DHT22;12311;50.866;4.332;2022-11-20T06:54:49;5.50;99.90
24152;DHT22;12311;50.866;4.332;2022-11-20T06:57:15;5.50;99.90
24152;DHT22;12311;50.866;4.332;2022-11-20T06:59:41;5.50;99.90
24152;DHT22;12311;50.866;4.332;2022-11-20T07:02:10;5.50;99.90
24152;DHT22;12311;50.866;4.332;2022-11-20T07:04:36;5.50;99.90
24152;DHT22;12311;50.866;4.332;2022-11-20T07:07:02;5.60;99.90
24152;DHT22;12311;50.866;4.332;2022-11-20T07:09:27;5.50;99.90
24152;DHT22;12311;50.866;4.332;2022-11-20T07:11:53;5.60;99.90
24152;DHT22;12311;50.866;4.332;2022-11-20T07:14:19;5.70;99.90
24152;DHT22;12311;50.866;4.332;2022-11-20T07:16:44;5.70;99.90
24152;DHT22;12311;50.866;4.332;2022-11-20T07:19:10;5.60;99.90
24152;DHT22;12311;50.866;4.332;2022-11-20T07:21:35;5.60;99.90
24152;DHT22;12311;50.866;4.332;2022-11-20T07:24:02;5.60;99.90
24152;DHT22;12311;50.866;4.332;2022-11-20T07:26:27;5.60;99.90
24152;DHT22;12311;50.866;4.332;2022-11-20T07:28:53;5.60;99.90
24152;DHT22;12311;50.866;4.332;2022-11-20T07:31:19;5.70;99.90
24152;DHT22;12311;50.866;4.332;2022-11-20T07:33:45;5.70;99.90
24152;DHT22;12311;50.866;4.332;2022-11-20T07:36:10;5.80;99.90
24152;DHT22;12311;50.866;4.332;2022-11-20T07:38:37;5.90;99.90
24152;DHT22;12311;50.866;4.332;2022-11-20T07:41:03;6.00;99.90
24152;DHT22;12311;50.866;4.332;2022-11-20T07:43:29;6.10;99.90
24152;DHT22;12311;50.866;4.332;2022-11-20T07:45:55;6.10;99.90
24152;DHT22;12311;50.866;4.332;2022-11-20T07:48:22;6.20;99.90
24152;DHT22;12311;50.866;4.332;2022-11-20T07:50:47;6.30;99.90
24152;DHT22;12311;50.866;4.332;2022-11-20T07:53:13;6.40;99.90
24152;DHT22;12311;50.866;4.332;2022-11-20T07:55:39;6.30;99.90
24152;DHT22;12311;50.866;4.332;2022-11-20T07:58:05;6.30;99.90
24152;DHT22;12311;50.866;4.332;2022-11-20T08:00:30;6.40;99.90
24152;DHT22;12311;50.866;4.332;2022-11-20T08:02:56;6.40;99.90
24152;DHT22;12311;50.866;4.332;2022-11-20T08:05:22;6.40;99.90
24152;DHT22;12311;50.866;4.332;2022-11-20T08:07:47;6.30;99.90
24152;DHT22;12311;50.866;4.332;2022-11-20T08:10:15;6.20;99.90
24152;DHT22;12311;50.866;4.332;2022-11-20T08:12:48;6.30;99.90
24152;DHT22;12311;50.866;4.332;2022-11-20T08:15:33;6.40;99.90
24152;DHT22;12311;50.866;4.332;2022-11-20T08:18:04;6.60;99.90
24152;DHT22;12311;50.866;4.332;2022-11-20T08:20:31;6.70;99.90
24152;DHT22;12311;50.866;4.332;2022-11-20T08:23:07;6.80;99.90
24152;DHT22;12311;50.866;4.332;2022-11-20T08:25:34;6.70;99.90
24152;DHT22;12311;50.866;4.332;2022-11-20T08:28:02;6.60;99.90
24152;DHT22;12311;50.866;4.332;2022-11-20T08:30:29;6.60;99.90
24152;DHT22;12311;50.866;4.332;2022-11-20T08:32:59;6.60;99.90
24152;DHT22;12311;50.866;4.332;2022-11-20T08:35:26;6.70;99.90
24152;DHT22;12311;50.866;4.332;2022-11-20T08:37:51;6.80;99.90
24152;DHT22;12311;50.866;4.332;2022-11-20T08:40:17;6.80;99.90
24152;DHT22;12311;50.866;4.332;2022-11-20T08:42:50;6.70;99.90
24152;DHT22;12311;50.866;4.332;2022-11-20T08:45:17;6.70;99.90
24152;DHT22;12311;50.866;4.332;2022-11-20T08:47:43;6.80;99.90
24152;DHT22;12311;50.866;4.332;2022-11-20T08:50:10;6.80;99.90
24152;DHT22;12311;50.866;4.332;2022-11-20T08:52:36;6.80;99.90
24152;DHT22;12311;50.866;4.332;2022-11-20T08:55:02;6.80;99.90
24152;DHT22;12311;50.866;4.332;2022-11-20T08:57:28;6.90;99.90
24152;DHT22;12311;50.866;4.332;2022-11-20T08:59:53;6.90;99.90
24152;DHT22;12311;50.866;4.332;2022-11-20T09:02:19;6.90;99.90
24152;DHT22;12311;50.866;4.332;2022-11-20T09:04:44;6.90;99.90
24152;DHT22;12311;50.866;4.332;2022-11-20T09:07:10;6.90;99.90
24152;DHT22;12311;50.866;4.332;2022-11-20T09:09:35;6.80;99.90
24152;DHT22;12311;50.866;4.332;2022-11-20T09:12:01;6.80;99.90
24152;DHT22;12311;50.866;4.332;2022-11-20T09:14:27;6.80;99.90
24152;DHT22;12311;50.866;4.332;2022-11-20T09:16:55;7.00;99.90
24152;DHT22;12311;50.866;4.332;2022-11-20T09:19:21;6.90;99.90
24152;DHT22;12311;50.866;4.332;2022-11-20T09:21:46;7.00;99.90
24152;DHT22;12311;50.866;4.332;2022-11-20T09:24:12;7.00;99.90
24152;DHT22;12311;50.866;4.332;2022-11-20T09:26:37;7.10;99.90
24152;DHT22;12311;50.866;4.332;2022-11-20T09:29:03;7.20;99.90
24152;DHT22;12311;50.866;4.332;2022-11-20T09:31:29;7.20;99.90
24152;DHT22;12311;50.866;4.332;2022-11-20T09:33:54;7.30;99.90
24152;DHT22;12311;50.866;4.332;2022-11-20T09:36:20;7.60;99.90
24152;DHT22;12311;50.866;4.332;2022-11-20T09:38:46;7.60;99.90
24152;DHT22;12311;50.866;4.332;2022-11-20T09:46:51;7.90;99.90
24152;DHT22;12311;50.866;4.332;2022-11-20T09:52:28;8.10;99.90
24152;DHT22;12311;50.866;4.332;2022-11-20T09:54:56;8.10;99.90
24152;DHT22;12311;50.866;4.332;2022-11-20T09:57:42;8.10;99.90
24152;DHT22;12311;50.866;4.332;2022-11-20T10:00:14;8.20;99.90
24152;DHT22;12311;50.866;4.332;2022-11-20T10:02:44;8.30;99.90
24152;DHT22;12311;50.866;4.332;2022-11-20T10:10:26;8.30;99.90
24152;DHT22;12311;50.866;4.332;2022-11-20T10:18:40;8.40;99.90
24152;DHT22;12311;50.866;4.332;2022-11-20T10:29:17;8.60;99.90
24152;DHT22;12311;50.866;4.332;2022-11-20T10:31:52;8.70;99.90
24152;DHT22;12311;50.866;4.332;2022-11-20T10:34:34;8.80;99.90
24152;DHT22;12311;50.866;4.332;2022-11-20T10:37:23;8.80;99.90
24152;DHT22;12311;50.866;4.332;2022-11-20T10:40:05;8.80;99.90
24152;DHT22;12311;50.866;4.332;2022-11-20T10:42:43;8.90;99.90
24152;DHT22;12311;50.866;4.332;2022-11-20T10:48:23;9.00;99.90
24152;DHT22;12311;50.866;4.332;2022-11-20T10:51:08;9.00;99.90
24152;DHT22;12311;50.866;4.332;2022-11-20T10:56:46;9.20;99.90
24152;DHT22;12311;50.866;4.332;2022-11-20T11:01:52;9.40;99.90
24152;DHT22;12311;50.866;4.332;2022-11-20T11:04:26;9.30;99.90
24152;DHT22;12311;50.866;4.332;2022-11-20T11:07:01;9.30;99.90
24152;DHT22;12311;50.866;4.332;2022-11-20T11:09:34;9.30;99.90
24152;DHT22;12311;50.866;4.332;2022-11-20T11:12:01;9.40;99.90
24152;DHT22;12311;50.866;4.332;2022-11-20T11:14:26;9.40;99.90
24152;DHT22;12311;50.866;4.332;2022-11-20T11:16:54;9.40;99.90
24152;DHT22;12311;50.866;4.332;2022-11-20T11:19:21;9.40;99.90
24152;DHT22;12311;50.866;4.332;2022-11-20T11:21:51;9.40;99.90
24152;DHT22;12311;50.866;4.332;2022-11-20T11:24:23;9.30;99.90
24152;DHT22;12311;50.866;4.332;2022-11-20T11:29:30;9.40;99.90
24152;DHT22;12311;50.866;4.332;2022-11-20T11:32:13;9.40;99.90
24152;DHT22;12311;50.866;4.332;2022-11-20T11:34:39;9.40;99.90
24152;DHT22;12311;50.866;4.332;2022-11-20T11:37:10;9.40;99.90
24152;DHT22;12311;50.866;4.332;2022-11-20T11:39:40;9.40;99.90
24152;DHT22;12311;50.866;4.332;2022-11-20T11:42:12;9.30;99.90
24152;DHT22;12311;50.866;4.332;2022-11-20T11:44:44;9.30;99.90
24152;DHT22;12311;50.866;4.332;2022-11-20T11:47:37;9.20;99.90
24152;DHT22;12311;50.866;4.332;2022-11-20T11:52:49;8.80;99.90
24152;DHT22;12311;50.866;4.332;2022-11-20T11:55:49;8.80;99.90
24152;DHT22;12311;50.866;4.332;2022-11-20T12:00:51;8.80;99.90
24152;DHT22;12311;50.866;4.332;2022-11-20T12:03:32;8.70;99.90
24152;DHT22;12311;50.866;4.332;2022-11-20T12:06:06;8.60;99.90
24152;DHT22;12311;50.866;4.332;2022-11-20T12:09:08;8.60;99.90
24152;DHT22;12311;50.866;4.332;2022-11-20T12:14:33;8.50;99.90
24152;DHT22;12311;50.866;4.332;2022-11-20T12:17:01;8.50;99.90
24152;DHT22;12311;50.866;4.332;2022-11-20T12:19:29;8.60;99.90
24152;DHT22;12311;50.866;4.332;2022-11-20T12:25:04;8.40;99.90
24152;DHT22;12311;50.866;4.332;2022-11-20T12:30:12;8.20;99.90
24152;DHT22;12311;50.866;4.332;2022-11-20T12:49:48;8.20;99.90
24152;DHT22;12311;50.866;4.332;2022-11-20T12:55:28;8.20;99.90
24152;DHT22;12311;50.866;4.332;2022-11-20T12:58:22;8.30;99.90
24152;DHT22;12311;50.866;4.332;2022-11-20T13:01:24;8.20;99.90
24152;DHT22;12311;50.866;4.332;2022-11-20T13:04:39;8.20;99.90
24152;DHT22;12311;50.866;4.332;2022-11-20T13:07:12;8.20;99.90
24152;DHT22;12311;50.866;4.332;2022-11-20T13:09:46;8.20;99.90
24152;DHT22;12311;50.866;4.332;2022-11-20T13:12:25;8.30;99.90
24152;DHT22;12311;50.866;4.332;2022-11-20T13:17:47;8.30;99.90
24152;DHT22;12311;50.866;4.332;2022-11-20T13:20:17;8.30;99.90
24152;DHT22;12311;50.866;4.332;2022-11-20T13:27:49;8.10;99.90
24152;DHT22;12311;50.866;4.332;2022-11-20T13:30:18;8.00;99.90
24152;DHT22;12311;50.866;4.332;2022-11-20T13:35:32;8.00;99.90
24152;DHT22;12311;50.866;4.332;2022-11-20T13:38:07;8.00;99.90
24152;DHT22;12311;50.866;4.332;2022-11-20T13:40:37;8.00;99.90
24152;DHT22;12311;50.866;4.332;2022-11-20T13:43:34;8.00;99.90
24152;DHT22;12311;50.866;4.332;2022-11-20T13:46:05;8.00;99.90
24152;DHT22;12311;50.866;4.332;2022-11-20T13:48:39;8.10;99.90
24152;DHT22;12311;50.866;4.332;2022-11-20T14:00:13;8.10;99.90
24152;DHT22;12311;50.866;4.332;2022-11-20T14:02:40;8.10;99.90
24152;DHT22;12311;50.866;4.332;2022-11-20T14:05:22;8.10;99.90
24152;DHT22;12311;50.866;4.332;2022-11-20T14:07:49;8.20;99.90
24152;DHT22;12311;50.866;4.332;2022-11-20T14:10:28;8.20;99.90
24152;DHT22;12311;50.866;4.332;2022-11-20T14:12:54;8.20;99.90
24152;DHT22;12311;50.866;4.332;2022-11-20T14:15:25;8.20;99.90
24152;DHT22;12311;50.866;4.332;2022-11-20T14:17:51;8.20;99.90
24152;DHT22;12311;50.866;4.332;2022-11-20T14:20:17;8.20;99.90
24152;DHT22;12311;50.866;4.332;2022-11-20T14:22:49;8.20;99.90
24152;DHT22;12311;50.866;4.332;2022-11-20T14:27:43;8.30;99.90
24152;DHT22;12311;50.866;4.332;2022-11-20T14:32:41;8.40;99.90
24152;DHT22;12311;50.866;4.332;2022-11-20T14:35:09;8.40;99.90
24152;DHT22;12311;50.866;4.332;2022-11-20T14:37:40;8.50;99.90
24152;DHT22;12311;50.866;4.332;2022-11-20T14:40:35;8.40;99.90
24152;DHT22;12311;50.866;4.332;2022-11-20T14:43:04;8.50;99.90
24152;DHT22;12311;50.866;4.332;2022-11-20T14:45:46;8.50;99.90
24152;DHT22;12311;50.866;4.332;2022-11-20T14:48:14;8.50;99.90
24152;DHT22;12311;50.866;4.332;2022-11-20T14:50:40;8.50;99.90
24152;DHT22;12311;50.866;4.332;2022-11-20T14:53:06;8.40;99.90
24152;DHT22;12311;50.866;4.332;2022-11-20T14:55:33;8.50;99.90
24152;DHT22;12311;50.866;4.332;2022-11-20T14:58:04;8.50;99.90
24152;DHT22;12311;50.866;4.332;2022-11-20T15:00:35;8.60;99.90
24152;DHT22;12311;50.866;4.332;2022-11-20T15:03:00;8.60;99.90
24152;DHT22;12311;50.866;4.332;2022-11-20T15:05:45;8.60;99.90
24152;DHT22;12311;50.866;4.332;2022-11-20T15:08:12;8.60;99.90
24152;DHT22;12311;50.866;4.332;2022-11-20T15:10:39;8.70;99.90
24152;DHT22;12311;50.866;4.332;2022-11-20T15:13:15;8.60;99.90
24152;DHT22;12311;50.866;4.332;2022-11-20T15:15:51;8.70;99.90
24152;DHT22;12311;50.866;4.332;2022-11-20T15:18:43;8.70;99.90
24152;DHT22;12311;50.866;4.332;2022-11-20T15:21:13;8.70;99.90
24152;DHT22;12311;50.866;4.332;2022-11-20T15:23:38;8.80;99.90
24152;DHT22;12311;50.866;4.332;2022-11-20T15:26:08;8.90;99.90
24152;DHT22;12311;50.866;4.332;2022-11-20T15:28:45;8.90;99.90
24152;DHT22;12311;50.866;4.332;2022-11-20T15:31:18;8.90;99.90
24152;DHT22;12311;50.866;4.332;2022-11-20T15:33:44;9.00;99.90
24152;DHT22;12311;50.866;4.332;2022-11-20T15:36:10;9.00;99.90
24152;DHT22;12311;50.866;4.332;2022-11-20T15:38:36;9.10;99.90
24152;DHT22;12311;50.866;4.332;2022-11-20T15:41:02;9.10;99.90
24152;DHT22;12311;50.866;4.332;2022-11-20T15:43:27;9.20;99.90
24152;DHT22;12311;50.866;4.332;2022-11-20T15:46:05;9.30;99.90
24152;DHT22;12311;50.866;4.332;2022-11-20T15:53:41;9.20;99.90
24152;DHT22;12311;50.866;4.332;2022-11-20T15:56:14;9.10;99.90
24152;DHT22;12311;50.866;4.332;2022-11-20T15:58:40;9.20;99.90
24152;DHT22;12311;50.866;4.332;2022-11-20T16:01:11;9.20;99.90
24152;DHT22;12311;50.866;4.332;2022-11-20T16:03:37;9.30;99.90
24152;DHT22;12311;50.866;4.332;2022-11-20T16:06:02;9.30;99.90
24152;DHT22;12311;50.866;4.332;2022-11-20T16:08:28;9.30;99.90
24152;DHT22;12311;50.866;4.332;2022-11-20T16:10:53;9.30;99.90
24152;DHT22;12311;50.866;4.332;2022-11-20T16:13:19;9.30;99.90
24152;DHT22;12311;50.866;4.332;2022-11-20T16:16:22;9.40;99.90
24152;DHT22;12311;50.866;4.332;2022-11-20T16:18:49;9.30;99.90
24152;DHT22;12311;50.866;4.332;2022-11-20T16:21:15;9.30;99.90
24152;DHT22;12311;50.866;4.332;2022-11-20T16:23:41;9.30;99.90
24152;DHT22;12311;50.866;4.332;2022-11-20T16:26:15;9.30;99.90
24152;DHT22;12311;50.866;4.332;2022-11-20T16:28:42;9.30;99.90
24152;DHT22;12311;50.866;4.332;2022-11-20T16:31:16;9.30;99.90
24152;DHT22;12311;50.866;4.332;2022-11-20T16:33:42;9.20;99.90
24152;DHT22;12311;50.866;4.332;2022-11-20T16:36:13;9.20;99.90
24152;DHT22;12311;50.866;4.332;2022-11-20T16:38:39;9.20;99.90
24152;DHT22;12311;50.866;4.332;2022-11-20T16:41:05;9.20;99.90
24152;DHT22;12311;50.866;4.332;2022-11-20T16:43:31;9.20;99.90
24152;DHT22;12311;50.866;4.332;2022-11-20T16:45:57;9.30;99.90
24152;DHT22;12311;50.866;4.332;2022-11-20T16:48:23;9.20;99.90
24152;DHT22;12311;50.866;4.332;2022-11-20T16:50:51;9.30;99.90
24152;DHT22;12311;50.866;4.332;2022-11-20T16:53:21;9.30;99.90
24152;DHT22;12311;50.866;4.332;2022-11-20T16:55:47;9.30;99.90
24152;DHT22;12311;50.866;4.332;2022-11-20T16:58:13;9.30;99.90
24152;DHT22;12311;50.866;4.332;2022-11-20T17:00:40;9.20;99.90
24152;DHT22;12311;50.866;4.332;2022-11-20T17:03:06;9.10;99.90
24152;DHT22;12311;50.866;4.332;2022-11-20T17:05:34;9.00;99.90
24152;DHT22;12311;50.866;4.332;2022-11-20T17:08:00;9.00;99.90
24152;DHT22;12311;50.866;4.332;2022-11-20T17:10:26;9.00;99.90
24152;DHT22;12311;50.866;4.332;2022-11-20T17:12:52;9.00;99.90
24152;DHT22;12311;50.866;4.332;2022-11-20T17:15:17;9.00;99.90
24152;DHT22;12311;50.866;4.332;2022-11-20T17:17:43;9.10;99.90
24152;DHT22;12311;50.866;4.332;2022-11-20T17:20:09;9.10;99.90
24152;DHT22;12311;50.866;4.332;2022-11-20T17:22:36;9.10;99.90
24152;DHT22;12311;50.866;4.332;2022-11-20T17:25:02;9.20;99.90
24152;DHT22;12311;50.866;4.332;2022-11-20T17:27:28;9.20;99.90
24152;DHT22;12311;50.866;4.332;2022-11-20T17:29:53;9.20;99.90
24152;DHT22;12311;50.866;4.332;2022-11-20T17:32:21;9.30;99.90
24152;DHT22;12311;50.866;4.332;2022-11-20T17:34:47;9.30;99.90
24152;DHT22;12311;50.866;4.332;2022-11-20T17:37:12;9.20;99.90
24152;DHT22;12311;50.866;4.332;2022-11-20T17:39:38;9.00;99.90
24152;DHT22;12311;50.866;4.332;2022-11-20T17:42:04;8.80;99.90
24152;DHT22;12311;50.866;4.332;2022-11-20T17:44:48;8.70;99.90
24152;DHT22;12311;50.866;4.332;2022-11-20T17:47:14;8.60;99.90
24152;DHT22;12311;50.866;4.332;2022-11-20T17:49:40;8.60;99.90